Warning: Javascript must be enabled to use all the features on this page!


Page Loading - Please Wait...

* We've detected you're using a mobile device. Find our Next Generation Station Page here.
Click to hideNews Bulletins

Streamflow Measurements for the Nation


USGS 11455278 HASS SLOUGH NR ELMIRA CA


Solano County, California
Hydrologic Unit Code 18020163
Latitude  38°17'38.94", Longitude 121°43'32.66" NAD83
Gage datum 0 feet above NAVD88
Output formats
HTML table with channel data
HTML table without channel data
Tab-separated data with channel data
Tab-separated data without channel data
Graph of data
Reselect output format
Meas.
Number
  Date       Time Time
Datum
Measurement
Used?
  Who Measuring
Agency
Stream
flow
(ft3/s)
Gage
Height
(ft)
GH
Change
(ft)
Meas.
Duration
(hr)
Meas.
Rated
  Control Flow
Adjust.
Code
 
1842022-01-18 14:43:47PSTYesJEHATFIELD/EUSGS-5674.89 Poor NONE
1832022-01-18 14:40:25PSTYesJEHATFIELD/EUSGS-5804.86 Poor NONE
1822022-01-18 14:37:01PSTYesJEHATFIELD/EUSGS-5594.83 Poor NONE
1812022-01-18 14:33:39PSTYesJEHATFIELD/EUSGS-6304.80 Poor NONE
1802022-01-18 14:30:17PSTYesJEHATFIELD/EUSGS-6424.77 Poor NONE
1792022-01-18 14:26:48PSTYesJEHATFIELD/EUSGS-6664.74 Poor NONE
922021-08-17 09:26:05PSTYesJEHATFIELD/EUSGS-11702.26 Poor NONE
912021-08-17 09:23:20PSTYesJEHATFIELD/EUSGS-12202.22 Poor NONE
902021-08-17 09:20:34PSTYesJEHATFIELD/EUSGS-11702.17 Poor NONE
892021-08-17 09:17:53PSTYesJEHATFIELD/EUSGS-11902.13 Poor NONE
882021-08-17 09:15:09PSTYesJEHATFIELD/EUSGS-11502.08 Poor NONE
872021-08-17 09:12:17PSTYesJEHATFIELD/EUSGS-11802.04 Poor NONE
862021-02-09 10:28:55PSTYesJEH/EBDUSGS-8493.15 Poor NONE
852021-02-09 10:26:46PSTYesJEH/EBDUSGS-9393.12 Poor NONE
842021-02-09 10:24:38PSTYesJEH/EBDUSGS-8673.09 Poor NONE
832021-02-09 10:22:46PSTYesJEH/EBDUSGS-6343.07 Poor NONE
822021-02-09 10:20:59PSTYesJEH/EBDUSGS-8323.01 Poor NONE
812021-02-09 10:18:40PSTYesJEH/EBDUSGS-8153.01 Poor NONE
802020-11-09 12:43:34PSTYesJEH/EBDUSGS-2643.85 Poor NONE
792020-11-09 12:37:37PSTYesJEH/EBDUSGS-5273.83 Poor NONE
782020-11-09 12:31:44PSTYesJEH/EBDUSGS-4273.81 Poor NONE
772020-11-09 12:25:48PSTYesJEH/EBDUSGS-4183.78 Poor NONE
762020-11-09 12:19:54PSTYesJEH/EBDUSGS-6633.75 Poor NONE
752020-11-09 12:13:55PSTYesJEH/EBDUSGS-6733.72 Poor NONE
742020-09-02 13:08PSTYesJEH/EBDUSGS-7681.91 Poor NONE
732020-09-02 13:04:22PSTYesJEH/EBDUSGS-7341.87 Poor NONE
722020-09-02 13:00:50PSTYesJEH/EBDUSGS-6971.82 Poor NONE
712020-09-02 12:57:17PSTYesJEH/EBDUSGS-5811.78 Poor NONE
702020-09-02 12:53:42PSTYesJEH/EBDUSGS-6341.75 Poor NONE
692020-09-02 12:49:46PSTYesJEH/EBDUSGS-5051.71 Poor NONE
682020-05-08 13:57:23PSTYesNVB/ACUSGS-10701.15 Poor NONE
672020-05-08 13:50:16PSTYesNVB/ACUSGS-10401.04 Poor NONE
662020-05-08 13:43:09PSTYesNVB/ACUSGS-8830.93 Poor NONE
652020-05-08 13:35:13PSTYesNVB/ACUSGS-6170.83 Poor NONE
642020-05-08 13:14:59PSTYesNVB/ACUSGS-3190.67 Poor NONE
632020-05-08 13:06:06PSTYesNVB/ACUSGS16.30.65 Poor NONE
622020-05-08 12:54:46PSTYesNVB/ACUSGS2010.66 Poor NONE
612020-05-08 12:47:10PSTYesNVB/ACUSGS1220.69 Poor NONE
602020-05-08 12:39:25PSTYesNVB/ACUSGS2690.73 Poor NONE
592020-05-08 12:32:05PSTYesNVB/ACUSGS2540.78 Poor NONE
582020-05-08 12:24:49PSTYesNVB/ACUSGS3680.83 Poor NONE
572020-05-08 12:17:35PSTYesNVB/ACUSGS3940.89 Poor NONE
562020-05-08 12:09:36PSTYesNVB/ACUSGS3130.96 Poor NONE
552020-05-08 12:02:16PSTYesNVB/ACUSGS4581.02 Poor NONE
542020-05-08 11:54:53PSTYesNVB/ACUSGS3821.09 Poor NONE
532020-05-08 11:48:04PSTYesNVB/ACUSGS5021.15 Poor NONE
522020-05-08 11:41:20PSTYesNVB/ACUSGS3661.22 Poor NONE
512020-05-08 11:34:33PSTYesNVB/ACUSGS4941.29 Poor NONE
502020-01-27 13:38:46PSTYesJH/HRUSGS-5212.22 Poor NONE
492020-01-27 13:36:02PSTYesJH/HRUSGS-5212.20 Poor NONE
482020-01-27 13:33:29PSTYesJH/HRUSGS-5132.17 Poor NONE
472020-01-27 13:31:07PSTYesJH/HRUSGS-5252.15 Poor NONE
462020-01-27 13:28:32PSTYesJH/HRUSGS-4112.12 Poor NONE
452020-01-27 13:25:36PSTYesJH/HRUSGS-4212.09 Poor NONE
442020-01-09 14:08:47PSTYesJH,ZHUSGS-5955.38 Poor NONE
432020-01-09 14:03:49PSTYesJH,ZHUSGS-5965.34 Poor NONE
422020-01-09 13:51:59PSTYesJH,ZHUSGS-6785.26 Poor NONE
412020-01-09 13:46:51PSTYesJH,ZHUSGS-6115.22 Poor NONE
402020-01-09 13:41:43PSTYesJH,ZHUSGS-6815.18 Poor NONE
392020-01-09 13:36:42PSTYesJH,ZHUSGS-7375.13 Poor NONE
382020-01-09 13:12:09PSTYesJH,ZHUSGS-7864.93 Poor NONE
372020-01-09 13:07PSTYesJH,ZHUSGS-7984.88 Poor NONE
362020-01-09 13:00:36PSTYesJH,ZHUSGS-6914.82 Poor NONE
352020-01-09 12:55:20PSTYesJH,ZHUSGS-6754.77 Poor NONE
342020-01-09 12:50:14PSTYesJH,ZHUSGS-8394.73 Poor NONE
332020-01-09 12:44:58PSTYesJH,ZHUSGS-7584.68 Poor NONE
322020-01-09 12:18:12PSTYesJH,ZHUSGS-8314.39 Poor NONE
312020-01-09 12:12:50PSTYesJH,ZHUSGS-7914.33 Poor NONE
302020-01-09 12:07:14PSTYesJH,ZHUSGS-8094.27 Poor NONE
292020-01-09 12:02:14PSTYesJH,ZHUSGS-8084.22 Poor NONE
282020-01-09 11:57:32PSTYesJH,ZHUSGS-8404.17 Poor NONE
272020-01-09 11:52:36PSTYesJH,ZHUSGS-8544.11 Poor NONE
262020-01-09 11:47:33PSTYesJH,ZHUSGS-9164.06 Poor NONE
252020-01-09 11:42:33PSTYesJH,ZHUSGS-7964.00 Poor NONE
242019-12-16 11:28:38PSTYesJH/NVUSGS6773.19 Poor NONE
232019-12-16 11:24:14PSTYesJH/NVUSGS7043.23 Poor NONE
222019-12-16 11:19:53PSTYesJH/NVUSGS6773.28 Poor NONE
212019-12-16 11:15:12PSTYesJH/NVUSGS6703.32 Poor NONE
202019-12-16 11:06:10PSTYesJH/NVUSGS8503.41 Poor NONE
192019-12-16 11:01:33PSTYesJH/NVUSGS7193.45 Poor NONE
182019-12-16 10:57:05PSTYesJH/NVUSGS7073.49 Poor NONE
172019-12-16 10:52:35PSTYesJH/NVUSGS5843.54 Poor NONE
162019-12-16 10:47:57PSTYesJH/NVUSGS6863.59 Poor NONE
152019-12-16 10:43:24PSTYesJH/NVUSGS6723.68 Poor NONE
142019-12-16 10:38:31PSTYesJH/NVUSGS4803.68 Poor NONE
132019-12-16 10:33:35PSTYesJH/NVUSGS6633.72 Poor NONE
122019-12-16 10:29:06PSTYesJH/NVUSGS6573.76 Poor NONE
112019-12-16 10:13:01PSTYesJH/NVUSGS5533.90 Poor NONE
102019-11-01 13:18:57PSTYesJH/ZHUSGS1682.45 Poor NONE
92019-11-01 13:15:04PSTYesJH/ZHUSGS1072.46 Poor NONE
82019-11-01 13:11:49PSTYesJH/ZHUSGS2712.47 Poor NONE
72019-11-01 13:08:05PSTYesJH/ZHUSGS98.02.48 Poor NONE
62019-11-01 12:38:05PSTYesJH/ZHUSGS4062.64 Poor NONE
52019-11-01 12:33:17PSTYesJH/ZHUSGS3012.66 Poor NONE
42019-11-01 12:27:10PSTYesJH/ZHUSGS3662.70 Poor NONE
32019-11-01 12:22:21PSTYesJH/ZHUSGS3922.73 Poor NONE
22019-11-01 12:17:37PSTYesJH/ZHUSGS2892.77 Poor NONE
12019-11-01 12:14:49PSTYesJH/ZHUSGS3432.78 Poor NONE
1782019-10-15 10:42:18PSTYesJH, ACUSGS3911.95 Poor NONE
1772019-10-15 10:38:44PSTYesJH, ACUSGS4201.98 Poor NONE
1762019-10-15 10:35:09PSTYesJH, ACUSGS4352.01 Poor NONE
1752019-10-15 10:31:38PSTYesJH, ACUSGS4122.03 Poor NONE
1742019-10-15 10:28:13PSTYesJH, ACUSGS2822.06 Poor NONE
1732019-10-15 10:24:35PSTYesJH, ACUSGS4562.09 Poor NONE
1722019-10-15 10:20:28PSTYesJH, ACUSGS4672.12 Poor NONE
1712019-10-15 10:16:48PSTYesJH, ACUSGS4792.15 Poor NONE
1702019-10-15 10:13:25PSTYesJH, ACUSGS4912.17 Poor NONE
1692019-10-15 10:09:53PSTYesJH, ACUSGS4782.20 Poor NONE
1682019-10-15 10:06:16PSTYesJH, ACUSGS4752.23 Poor NONE
1672019-10-15 10:02:16PSTYesJH, ACUSGS5372.26 Poor NONE
1662019-10-15 09:58:09PSTYesJH, ACUSGS6122.30 Poor NONE
1652019-10-15 09:54:39PSTYesJH, ACUSGS3882.33 Poor NONE
1642019-10-15 09:51:12PSTYesJH, ACUSGS4872.35 Poor NONE
1632019-10-15 09:47:37PSTYesJH, ACUSGS4372.38 Poor NONE
1622019-10-15 09:44:13PSTYesJH, ACUSGS5212.41 Poor NONE
1612019-10-15 09:40:36PSTYesJH, ACUSGS5132.44 Poor NONE